sensor_id;sensor_type;location;lat;lon;timestamp;temperature;humidity
16040;DHT22;8124;48.634;8.120;2022-07-10T00:01:54;22.00;99.90
16040;DHT22;8124;48.634;8.120;2022-07-10T00:06:57;21.80;99.90
16040;DHT22;8124;48.634;8.120;2022-07-10T00:12:02;21.70;99.90
16040;DHT22;8124;48.634;8.120;2022-07-10T00:17:07;21.70;99.90
16040;DHT22;8124;48.634;8.120;2022-07-10T00:22:10;21.90;99.90
16040;DHT22;8124;48.634;8.120;2022-07-10T00:27:14;22.00;99.90
16040;DHT22;8124;48.634;8.120;2022-07-10T00:32:17;22.00;99.90
16040;DHT22;8124;48.634;8.120;2022-07-10T00:43:02;21.40;99.90
16040;DHT22;8124;48.634;8.120;2022-07-10T00:48:06;21.10;99.90
16040;DHT22;8124;48.634;8.120;2022-07-10T00:53:11;21.20;99.90
16040;DHT22;8124;48.634;8.120;2022-07-10T00:58:16;21.20;99.90
16040;DHT22;8124;48.634;8.120;2022-07-10T01:03:19;21.40;99.90
16040;DHT22;8124;48.634;8.120;2022-07-10T01:08:22;21.40;99.90
16040;DHT22;8124;48.634;8.120;2022-07-10T01:13:27;21.70;99.90
16040;DHT22;8124;48.634;8.120;2022-07-10T01:18:31;21.70;99.90
16040;DHT22;8124;48.634;8.120;2022-07-10T01:23:36;21.70;99.90
16040;DHT22;8124;48.634;8.120;2022-07-10T01:28:39;21.60;99.90
16040;DHT22;8124;48.634;8.120;2022-07-10T01:33:42;21.60;99.90
16040;DHT22;8124;48.634;8.120;2022-07-10T01:38:47;21.70;99.90
16040;DHT22;8124;48.634;8.120;2022-07-10T01:43:53;21.50;99.90
16040;DHT22;8124;48.634;8.120;2022-07-10T01:48:57;21.50;99.90
16040;DHT22;8124;48.634;8.120;2022-07-10T01:54:01;21.40;99.90
16040;DHT22;8124;48.634;8.120;2022-07-10T01:59:04;21.50;99.90
16040;DHT22;8124;48.634;8.120;2022-07-10T02:04:08;21.50;99.90
16040;DHT22;8124;48.634;8.120;2022-07-10T02:09:37;21.40;99.90
16040;DHT22;8124;48.634;8.120;2022-07-10T02:14:42;21.50;99.90
16040;DHT22;8124;48.634;8.120;2022-07-10T02:19:45;21.30;99.90
16040;DHT22;8124;48.634;8.120;2022-07-10T02:24:49;21.30;99.90
16040;DHT22;8124;48.634;8.120;2022-07-10T02:29:52;21.10;99.90
16040;DHT22;8124;48.634;8.120;2022-07-10T02:34:55;20.80;99.90
16040;DHT22;8124;48.634;8.120;2022-07-10T02:39:59;20.40;99.90
16040;DHT22;8124;48.634;8.120;2022-07-10T02:45:03;20.30;99.90
16040;DHT22;8124;48.634;8.120;2022-07-10T02:50:08;20.00;99.90
16040;DHT22;8124;48.634;8.120;2022-07-10T02:55:13;20.00;99.90
16040;DHT22;8124;48.634;8.120;2022-07-10T03:00:16;19.70;99.90
16040;DHT22;8124;48.634;8.120;2022-07-10T03:05:19;19.50;99.90
16040;DHT22;8124;48.634;8.120;2022-07-10T03:10:23;19.40;99.90
16040;DHT22;8124;48.634;8.120;2022-07-10T03:15:26;19.20;99.90
16040;DHT22;8124;48.634;8.120;2022-07-10T03:20:29;19.30;99.90
16040;DHT22;8124;48.634;8.120;2022-07-10T03:25:34;19.30;99.90
16040;DHT22;8124;48.634;8.120;2022-07-10T03:30:37;19.20;99.90
16040;DHT22;8124;48.634;8.120;2022-07-10T03:35:40;19.10;99.90
16040;DHT22;8124;48.634;8.120;2022-07-10T03:40:44;19.00;99.90
16040;DHT22;8124;48.634;8.120;2022-07-10T03:45:49;18.70;99.90
16040;DHT22;8124;48.634;8.120;2022-07-10T03:50:52;18.70;99.90
16040;DHT22;8124;48.634;8.120;2022-07-10T03:55:56;18.50;99.90
16040;DHT22;8124;48.634;8.120;2022-07-10T04:01:00;18.40;99.90
16040;DHT22;8124;48.634;8.120;2022-07-10T04:06:04;18.50;99.90
16040;DHT22;8124;48.634;8.120;2022-07-10T04:11:08;18.30;99.90
16040;DHT22;8124;48.634;8.120;2022-07-10T04:16:11;18.30;99.90
16040;DHT22;8124;48.634;8.120;2022-07-10T04:21:14;18.10;99.90
16040;DHT22;8124;48.634;8.120;2022-07-10T04:26:19;18.00;99.90
16040;DHT22;8124;48.634;8.120;2022-07-10T04:31:22;17.80;99.90
16040;DHT22;8124;48.634;8.120;2022-07-10T04:36:25;17.80;99.90
16040;DHT22;8124;48.634;8.120;2022-07-10T04:41:29;17.70;99.90
16040;DHT22;8124;48.634;8.120;2022-07-10T04:46:32;17.80;99.90
16040;DHT22;8124;48.634;8.120;2022-07-10T04:51:35;17.70;99.90
16040;DHT22;8124;48.634;8.120;2022-07-10T04:56:45;17.70;99.90
16040;DHT22;8124;48.634;8.120;2022-07-10T05:01:48;17.60;99.90
16040;DHT22;8124;48.634;8.120;2022-07-10T05:06:51;17.60;99.90
16040;DHT22;8124;48.634;8.120;2022-07-10T05:11:55;17.60;99.90
16040;DHT22;8124;48.634;8.120;2022-07-10T05:16:58;17.60;99.90
16040;DHT22;8124;48.634;8.120;2022-07-10T05:22:01;17.90;99.90
16040;DHT22;8124;48.634;8.120;2022-07-10T05:27:06;17.80;99.90
16040;DHT22;8124;48.634;8.120;2022-07-10T05:32:09;17.90;99.90
16040;DHT22;8124;48.634;8.120;2022-07-10T05:37:12;18.00;99.90
16040;DHT22;8124;48.634;8.120;2022-07-10T05:42:16;18.00;99.90
16040;DHT22;8124;48.634;8.120;2022-07-10T05:47:19;18.10;99.90
16040;DHT22;8124;48.634;8.120;2022-07-10T05:52:22;18.20;99.90
16040;DHT22;8124;48.634;8.120;2022-07-10T05:57:26;18.40;99.90
16040;DHT22;8124;48.634;8.120;2022-07-10T06:02:33;18.40;99.90
16040;DHT22;8124;48.634;8.120;2022-07-10T06:07:36;18.30;99.90
16040;DHT22;8124;48.634;8.120;2022-07-10T06:12:40;18.30;99.90
16040;DHT22;8124;48.634;8.120;2022-07-10T06:17:43;18.40;99.90
16040;DHT22;8124;48.634;8.120;2022-07-10T06:22:46;18.40;99.90
16040;DHT22;8124;48.634;8.120;2022-07-10T06:27:51;18.50;99.90
16040;DHT22;8124;48.634;8.120;2022-07-10T06:32:54;18.40;99.90
16040;DHT22;8124;48.634;8.120;2022-07-10T06:37:57;18.60;99.90
16040;DHT22;8124;48.634;8.120;2022-07-10T06:43:01;18.90;99.90
16040;DHT22;8124;48.634;8.120;2022-07-10T06:48:05;18.80;99.90
16040;DHT22;8124;48.634;8.120;2022-07-10T06:53:08;18.50;99.90
16040;DHT22;8124;48.634;8.120;2022-07-10T06:58:12;18.60;99.90
16040;DHT22;8124;48.634;8.120;2022-07-10T07:03:15;18.50;99.90
16040;DHT22;8124;48.634;8.120;2022-07-10T07:08:18;18.50;99.90
16040;DHT22;8124;48.634;8.120;2022-07-10T07:13:23;18.40;99.90
16040;DHT22;8124;48.634;8.120;2022-07-10T07:18:27;18.40;99.90
16040;DHT22;8124;48.634;8.120;2022-07-10T07:23:34;18.40;99.90
16040;DHT22;8124;48.634;8.120;2022-07-10T07:28:39;18.40;99.90
16040;DHT22;8124;48.634;8.120;2022-07-10T07:33:42;18.60;99.90
16040;DHT22;8124;48.634;8.120;2022-07-10T07:38:45;18.50;99.90
16040;DHT22;8124;48.634;8.120;2022-07-10T07:43:50;18.60;99.90
16040;DHT22;8124;48.634;8.120;2022-07-10T07:48:54;18.90;99.90
16040;DHT22;8124;48.634;8.120;2022-07-10T07:53:57;19.00;99.90
16040;DHT22;8124;48.634;8.120;2022-07-10T07:59:01;19.10;99.90
16040;DHT22;8124;48.634;8.120;2022-07-10T08:04:04;18.70;99.90
16040;DHT22;8124;48.634;8.120;2022-07-10T08:09:10;18.70;99.90
16040;DHT22;8124;48.634;8.120;2022-07-10T08:14:14;18.60;99.90
16040;DHT22;8124;48.634;8.120;2022-07-10T08:19:17;18.80;99.90
16040;DHT22;8124;48.634;8.120;2022-07-10T08:24:22;19.00;99.90
16040;DHT22;8124;48.634;8.120;2022-07-10T08:29:39;19.20;99.90
16040;DHT22;8124;48.634;8.120;2022-07-10T08:34:42;18.80;99.90
16040;DHT22;8124;48.634;8.120;2022-07-10T08:39:45;18.70;99.90
16040;DHT22;8124;48.634;8.120;2022-07-10T08:44:51;18.80;99.90
16040;DHT22;8124;48.634;8.120;2022-07-10T08:49:54;19.10;99.90
16040;DHT22;8124;48.634;8.120;2022-07-10T08:54:57;19.60;99.90
16040;DHT22;8124;48.634;8.120;2022-07-10T09:00:01;19.60;99.90
16040;DHT22;8124;48.634;8.120;2022-07-10T09:05:05;19.70;99.90
16040;DHT22;8124;48.634;8.120;2022-07-10T09:10:11;19.60;99.90
16040;DHT22;8124;48.634;8.120;2022-07-10T09:15:20;19.70;99.90
16040;DHT22;8124;48.634;8.120;2022-07-10T09:26:04;19.80;99.90
16040;DHT22;8124;48.634;8.120;2022-07-10T09:31:09;20.10;99.90
16040;DHT22;8124;48.634;8.120;2022-07-10T09:36:18;20.10;99.90
16040;DHT22;8124;48.634;8.120;2022-07-10T09:41:25;19.90;99.90
16040;DHT22;8124;48.634;8.120;2022-07-10T09:46:36;19.90;99.90
16040;DHT22;8124;48.634;8.120;2022-07-10T09:51:41;20.10;99.90
16040;DHT22;8124;48.634;8.120;2022-07-10T09:56:50;20.40;99.90
16040;DHT22;8124;48.634;8.120;2022-07-10T10:01:59;20.40;99.90
16040;DHT22;8124;48.634;8.120;2022-07-10T10:07:04;20.30;99.90
16040;DHT22;8124;48.634;8.120;2022-07-10T10:12:16;20.60;99.90
16040;DHT22;8124;48.634;8.120;2022-07-10T10:17:26;20.70;99.90
16040;DHT22;8124;48.634;8.120;2022-07-10T10:22:29;20.70;99.90
16040;DHT22;8124;48.634;8.120;2022-07-10T10:27:33;20.80;99.90
16040;DHT22;8124;48.634;8.120;2022-07-10T10:32:51;20.90;99.90
16040;DHT22;8124;48.634;8.120;2022-07-10T10:37:55;21.30;99.90
16040;DHT22;8124;48.634;8.120;2022-07-10T10:42:58;21.10;99.90
16040;DHT22;8124;48.634;8.120;2022-07-10T10:48:19;21.40;99.90
16040;DHT22;8124;48.634;8.120;2022-07-10T10:53:39;21.00;99.90
16040;DHT22;8124;48.634;8.120;2022-07-10T10:58:43;21.10;99.90
16040;DHT22;8124;48.634;8.120;2022-07-10T11:09:29;21.00;99.90
16040;DHT22;8124;48.634;8.120;2022-07-10T11:14:34;20.90;99.90
16040;DHT22;8124;48.634;8.120;2022-07-10T11:19:38;21.60;99.90
16040;DHT22;8124;48.634;8.120;2022-07-10T11:24:48;21.60;99.90
16040;DHT22;8124;48.634;8.120;2022-07-10T11:29:58;21.50;99.90
16040;DHT22;8124;48.634;8.120;2022-07-10T11:35:01;21.50;99.90
16040;DHT22;8124;48.634;8.120;2022-07-10T11:40:12;21.50;99.90
16040;DHT22;8124;48.634;8.120;2022-07-10T11:45:26;21.80;99.90
16040;DHT22;8124;48.634;8.120;2022-07-10T11:50:34;21.60;99.90
16040;DHT22;8124;48.634;8.120;2022-07-10T11:55:39;21.40;99.90
16040;DHT22;8124;48.634;8.120;2022-07-10T12:00:43;21.70;99.90
16040;DHT22;8124;48.634;8.120;2022-07-10T12:05:47;21.90;99.90
16040;DHT22;8124;48.634;8.120;2022-07-10T12:10:53;21.70;99.10
16040;DHT22;8124;48.634;8.120;2022-07-10T12:15:56;21.50;98.10
16040;DHT22;8124;48.634;8.120;2022-07-10T12:20:59;21.60;97.60
16040;DHT22;8124;48.634;8.120;2022-07-10T12:26:04;21.80;97.20
16040;DHT22;8124;48.634;8.120;2022-07-10T12:31:08;21.80;96.50
16040;DHT22;8124;48.634;8.120;2022-07-10T12:36:11;21.80;96.00
16040;DHT22;8124;48.634;8.120;2022-07-10T12:41:16;21.80;95.30
16040;DHT22;8124;48.634;8.120;2022-07-10T12:46:25;21.80;94.80
16040;DHT22;8124;48.634;8.120;2022-07-10T12:51:32;21.90;94.30
16040;DHT22;8124;48.634;8.120;2022-07-10T12:56:58;22.10;93.70
16040;DHT22;8124;48.634;8.120;2022-07-10T13:02:18;22.30;93.30
16040;DHT22;8124;48.634;8.120;2022-07-10T13:07:30;22.30;92.70
16040;DHT22;8124;48.634;8.120;2022-07-10T13:12:35;22.40;92.30
16040;DHT22;8124;48.634;8.120;2022-07-10T13:17:43;22.10;91.50
16040;DHT22;8124;48.634;8.120;2022-07-10T13:22:46;22.10;91.00
16040;DHT22;8124;48.634;8.120;2022-07-10T13:27:50;22.20;90.70
16040;DHT22;8124;48.634;8.120;2022-07-10T13:32:53;22.30;90.40
16040;DHT22;8124;48.634;8.120;2022-07-10T13:37:57;22.40;90.10
16040;DHT22;8124;48.634;8.120;2022-07-10T13:43:03;22.70;90.10
16040;DHT22;8124;48.634;8.120;2022-07-10T13:48:07;22.60;89.10
16040;DHT22;8124;48.634;8.120;2022-07-10T13:53:10;22.50;88.40
16040;DHT22;8124;48.634;8.120;2022-07-10T13:58:17;22.80;88.30
16040;DHT22;8124;48.634;8.120;2022-07-10T14:03:21;22.50;87.10
16040;DHT22;8124;48.634;8.120;2022-07-10T14:08:24;22.80;87.10
16040;DHT22;8124;48.634;8.120;2022-07-10T14:13:29;22.80;86.70
16040;DHT22;8124;48.634;8.120;2022-07-10T14:18:32;22.80;86.20
16040;DHT22;8124;48.634;8.120;2022-07-10T14:23:41;22.80;85.70
16040;DHT22;8124;48.634;8.120;2022-07-10T14:28:47;23.20;86.00
16040;DHT22;8124;48.634;8.120;2022-07-10T14:33:50;23.10;85.30
16040;DHT22;8124;48.634;8.120;2022-07-10T14:38:53;23.30;85.10
16040;DHT22;8124;48.634;8.120;2022-07-10T14:43:57;23.20;84.70
16040;DHT22;8124;48.634;8.120;2022-07-10T14:49:00;23.10;83.80
16040;DHT22;8124;48.634;8.120;2022-07-10T14:54:03;23.10;83.40
16040;DHT22;8124;48.634;8.120;2022-07-10T14:59:08;23.10;83.10
16040;DHT22;8124;48.634;8.120;2022-07-10T15:04:16;23.10;82.60
16040;DHT22;8124;48.634;8.120;2022-07-10T15:09:19;23.40;82.60
16040;DHT22;8124;48.634;8.120;2022-07-10T15:14:23;23.20;82.00
16040;DHT22;8124;48.634;8.120;2022-07-10T15:19:27;23.40;81.90
16040;DHT22;8124;48.634;8.120;2022-07-10T15:24:30;23.30;81.30
16040;DHT22;8124;48.634;8.120;2022-07-10T15:29:34;23.70;81.80
16040;DHT22;8124;48.634;8.120;2022-07-10T15:34:38;23.60;81.20
16040;DHT22;8124;48.634;8.120;2022-07-10T15:39:41;23.60;80.90
16040;DHT22;8124;48.634;8.120;2022-07-10T15:44:47;23.90;81.20
16040;DHT22;8124;48.634;8.120;2022-07-10T15:49:50;23.60;80.30
16040;DHT22;8124;48.634;8.120;2022-07-10T15:54:54;23.80;80.30
16040;DHT22;8124;48.634;8.120;2022-07-10T15:59:58;23.60;79.70
16040;DHT22;8124;48.634;8.120;2022-07-10T16:05:01;23.70;79.50
16040;DHT22;8124;48.634;8.120;2022-07-10T16:10:05;23.90;79.60
16040;DHT22;8124;48.634;8.120;2022-07-10T16:15:09;23.60;78.80
16040;DHT22;8124;48.634;8.120;2022-07-10T16:20:17;23.70;78.60
16040;DHT22;8124;48.634;8.120;2022-07-10T16:25:20;23.60;78.30
16040;DHT22;8124;48.634;8.120;2022-07-10T16:30:42;24.00;78.70
16040;DHT22;8124;48.634;8.120;2022-07-10T16:35:45;23.80;78.30
16040;DHT22;8124;48.634;8.120;2022-07-10T16:40:48;23.60;77.70
16040;DHT22;8124;48.634;8.120;2022-07-10T16:45:53;23.60;77.60
16040;DHT22;8124;48.634;8.120;2022-07-10T16:50:57;23.80;77.60
16040;DHT22;8124;48.634;8.120;2022-07-10T16:56:00;24.10;77.90
16040;DHT22;8124;48.634;8.120;2022-07-10T17:01:04;24.20;78.00
16040;DHT22;8124;48.634;8.120;2022-07-10T17:06:09;24.30;78.00
16040;DHT22;8124;48.634;8.120;2022-07-10T17:11:13;24.00;77.40
16040;DHT22;8124;48.634;8.120;2022-07-10T17:16:17;23.90;77.00
16040;DHT22;8124;48.634;8.120;2022-07-10T17:21:20;24.50;77.90
16040;DHT22;8124;48.634;8.120;2022-07-10T17:26:44;23.90;76.80
16040;DHT22;8124;48.634;8.120;2022-07-10T17:31:48;24.10;77.00
16040;DHT22;8124;48.634;8.120;2022-07-10T17:36:51;24.10;76.80
16040;DHT22;8124;48.634;8.120;2022-07-10T17:41:54;24.00;76.60
16040;DHT22;8124;48.634;8.120;2022-07-10T17:46:59;24.10;76.60
16040;DHT22;8124;48.634;8.120;2022-07-10T17:52:02;23.90;76.30
16040;DHT22;8124;48.634;8.120;2022-07-10T17:57:06;23.90;76.20
16040;DHT22;8124;48.634;8.120;2022-07-10T18:02:18;23.90;76.10
16040;DHT22;8124;48.634;8.120;2022-07-10T18:07:22;23.70;75.80
16040;DHT22;8124;48.634;8.120;2022-07-10T18:12:25;23.80;76.00
16040;DHT22;8124;48.634;8.120;2022-07-10T18:17:29;23.70;75.80
16040;DHT22;8124;48.634;8.120;2022-07-10T18:22:32;23.50;75.60
16040;DHT22;8124;48.634;8.120;2022-07-10T18:27:36;23.10;75.20
16040;DHT22;8124;48.634;8.120;2022-07-10T18:32:40;23.00;75.20
16040;DHT22;8124;48.634;8.120;2022-07-10T18:38:01;23.00;75.50
16040;DHT22;8124;48.634;8.120;2022-07-10T18:43:04;22.80;75.50
16040;DHT22;8124;48.634;8.120;2022-07-10T18:48:09;22.70;75.80
16040;DHT22;8124;48.634;8.120;2022-07-10T18:53:12;22.70;76.20
16040;DHT22;8124;48.634;8.120;2022-07-10T18:58:15;22.80;76.60
16040;DHT22;8124;48.634;8.120;2022-07-10T19:03:20;22.60;76.60
16040;DHT22;8124;48.634;8.120;2022-07-10T19:08:23;22.50;76.70
16040;DHT22;8124;48.634;8.120;2022-07-10T19:13:26;22.30;76.70
16040;DHT22;8124;48.634;8.120;2022-07-10T19:18:31;22.30;77.10
16040;DHT22;8124;48.634;8.120;2022-07-10T19:23:34;22.40;77.80
16040;DHT22;8124;48.634;8.120;2022-07-10T19:28:37;22.10;77.80
16040;DHT22;8124;48.634;8.120;2022-07-10T19:33:41;22.30;78.40
16040;DHT22;8124;48.634;8.120;2022-07-10T19:38:45;22.20;78.80
16040;DHT22;8124;48.634;8.120;2022-07-10T19:43:50;22.10;79.30
16040;DHT22;8124;48.634;8.120;2022-07-10T19:48:55;22.40;80.70
16040;DHT22;8124;48.634;8.120;2022-07-10T19:53:58;22.30;81.00
16040;DHT22;8124;48.634;8.120;2022-07-10T19:59:01;22.30;81.40
16040;DHT22;8124;48.634;8.120;2022-07-10T20:04:05;22.50;82.10
16040;DHT22;8124;48.634;8.120;2022-07-10T20:09:08;22.50;82.30
16040;DHT22;8124;48.634;8.120;2022-07-10T20:14:11;22.40;82.50
16040;DHT22;8124;48.634;8.120;2022-07-10T20:19:22;21.60;81.60
16040;DHT22;8124;48.634;8.120;2022-07-10T20:24:27;21.50;82.50
16040;DHT22;8124;48.634;8.120;2022-07-10T20:29:30;21.40;83.20
16040;DHT22;8124;48.634;8.120;2022-07-10T20:34:34;21.60;84.40
16040;DHT22;8124;48.634;8.120;2022-07-10T20:39:37;21.70;85.50
16040;DHT22;8124;48.634;8.120;2022-07-10T20:44:40;21.90;86.60
16040;DHT22;8124;48.634;8.120;2022-07-10T20:49:45;21.90;87.00
16040;DHT22;8124;48.634;8.120;2022-07-10T20:54:48;21.60;86.70
16040;DHT22;8124;48.634;8.120;2022-07-10T20:59:52;21.80;87.50
16040;DHT22;8124;48.634;8.120;2022-07-10T21:04:56;21.40;87.50
16040;DHT22;8124;48.634;8.120;2022-07-10T21:09:59;21.50;88.30
16040;DHT22;8124;48.634;8.120;2022-07-10T21:15:02;21.60;89.10
16040;DHT22;8124;48.634;8.120;2022-07-10T21:20:08;21.20;88.90
16040;DHT22;8124;48.634;8.120;2022-07-10T21:25:11;21.20;89.50
16040;DHT22;8124;48.634;8.120;2022-07-10T21:30:14;21.20;90.00
16040;DHT22;8124;48.634;8.120;2022-07-10T21:35:19;21.00;90.10
16040;DHT22;8124;48.634;8.120;2022-07-10T21:40:23;21.00;91.10
16040;DHT22;8124;48.634;8.120;2022-07-10T21:45:28;20.90;91.50
16040;DHT22;8124;48.634;8.120;2022-07-10T21:50:32;20.90;92.50
16040;DHT22;8124;48.634;8.120;2022-07-10T21:55:35;21.10;93.00
16040;DHT22;8124;48.634;8.120;2022-07-10T22:00:38;20.70;93.00
16040;DHT22;8124;48.634;8.120;2022-07-10T22:05:42;20.70;93.40
16040;DHT22;8124;48.634;8.120;2022-07-10T22:10:46;20.70;94.00
16040;DHT22;8124;48.634;8.120;2022-07-10T22:15:49;20.60;94.70
16040;DHT22;8124;48.634;8.120;2022-07-10T22:20:53;20.20;95.60
16040;DHT22;8124;48.634;8.120;2022-07-10T22:25:56;20.20;97.40
16040;DHT22;8124;48.634;8.120;2022-07-10T22:30:59;20.10;99.70
16040;DHT22;8124;48.634;8.120;2022-07-10T22:36:23;20.10;99.90
16040;DHT22;8124;48.634;8.120;2022-07-10T22:41:26;20.00;99.90
16040;DHT22;8124;48.634;8.120;2022-07-10T22:46:30;20.10;99.90
16040;DHT22;8124;48.634;8.120;2022-07-10T22:51:34;20.00;99.90
16040;DHT22;8124;48.634;8.120;2022-07-10T22:56:37;19.80;99.90
16040;DHT22;8124;48.634;8.120;2022-07-10T23:01:40;19.60;99.90
16040;DHT22;8124;48.634;8.120;2022-07-10T23:06:51;19.60;99.90
16040;DHT22;8124;48.634;8.120;2022-07-10T23:11:53;19.40;99.90
16040;DHT22;8124;48.634;8.120;2022-07-10T23:16:56;19.30;99.90
16040;DHT22;8124;48.634;8.120;2022-07-10T23:22:01;19.40;99.90
16040;DHT22;8124;48.634;8.120;2022-07-10T23:27:04;19.20;99.90
16040;DHT22;8124;48.634;8.120;2022-07-10T23:32:08;19.20;99.90
16040;DHT22;8124;48.634;8.120;2022-07-10T23:37:12;19.40;99.90
16040;DHT22;8124;48.634;8.120;2022-07-10T23:42:16;19.50;99.90
16040;DHT22;8124;48.634;8.120;2022-07-10T23:47:19;19.60;99.90
16040;DHT22;8124;48.634;8.120;2022-07-10T23:52:24;19.60;99.90
16040;DHT22;8124;48.634;8.120;2022-07-10T23:57:27;19.00;99.90
